sensor_id;sensor_type;location;lat;lon;timestamp;temperature;humidity
429;DHT22;201;48.758;9.290;2023-05-18T00:00:19;6.70;1.00
429;DHT22;201;48.758;9.290;2023-05-18T00:02:45;6.60;1.00
429;DHT22;201;48.758;9.290;2023-05-18T00:05:12;6.50;1.00
429;DHT22;201;48.758;9.290;2023-05-18T00:07:38;6.50;1.00
429;DHT22;201;48.758;9.290;2023-05-18T00:10:04;6.60;1.00
429;DHT22;201;48.758;9.290;2023-05-18T00:12:29;6.60;1.20
429;DHT22;201;48.758;9.290;2023-05-18T00:14:55;6.70;1.40
429;DHT22;201;48.758;9.290;2023-05-18T00:17:20;6.70;1.40
429;DHT22;201;48.758;9.290;2023-05-18T00:19:46;6.60;1.70
429;DHT22;201;48.758;9.290;2023-05-18T00:22:12;6.60;2.00
429;DHT22;201;48.758;9.290;2023-05-18T00:24:43;6.40;2.20
429;DHT22;201;48.758;9.290;2023-05-18T00:27:09;6.40;2.50
429;DHT22;201;48.758;9.290;2023-05-18T00:29:35;6.30;3.10
429;DHT22;201;48.758;9.290;2023-05-18T00:32:01;6.30;3.30
429;DHT22;201;48.758;9.290;2023-05-18T00:34:26;6.20;3.50
429;DHT22;201;48.758;9.290;2023-05-18T00:36:52;6.10;3.80
429;DHT22;201;48.758;9.290;2023-05-18T00:39:18;6.10;4.40
429;DHT22;201;48.758;9.290;2023-05-18T00:41:43;6.00;4.60
429;DHT22;201;48.758;9.290;2023-05-18T00:44:09;6.00;5.00
429;DHT22;201;48.758;9.290;2023-05-18T00:46:34;6.00;5.50
429;DHT22;201;48.758;9.290;2023-05-18T00:49:00;5.90;5.90
429;DHT22;201;48.758;9.290;2023-05-18T00:51:29;5.90;6.30
429;DHT22;201;48.758;9.290;2023-05-18T00:53:56;5.80;6.70
429;DHT22;201;48.758;9.290;2023-05-18T00:56:23;5.80;7.40
429;DHT22;201;48.758;9.290;2023-05-18T00:58:51;5.80;7.40
429;DHT22;201;48.758;9.290;2023-05-18T01:01:18;5.60;6.50
429;DHT22;201;48.758;9.290;2023-05-18T01:03:44;5.60;6.50
429;DHT22;201;48.758;9.290;2023-05-18T01:06:09;5.60;6.20
429;DHT22;201;48.758;9.290;2023-05-18T01:08:37;5.60;6.40
429;DHT22;201;48.758;9.290;2023-05-18T01:11:23;5.60;6.60
429;DHT22;201;48.758;9.290;2023-05-18T01:13:57;5.60;7.30
429;DHT22;201;48.758;9.290;2023-05-18T01:16:29;5.60;7.30
429;DHT22;201;48.758;9.290;2023-05-18T01:19:07;5.60;7.30
429;DHT22;201;48.758;9.290;2023-05-18T01:24:40;5.60;7.30
429;DHT22;201;48.758;9.290;2023-05-18T01:27:09;5.70;7.30
429;DHT22;201;48.758;9.290;2023-05-18T01:29:40;5.70;7.30
429;DHT22;201;48.758;9.290;2023-05-18T01:32:08;5.80;7.40
429;DHT22;201;48.758;9.290;2023-05-18T01:34:34;5.80;7.40
429;DHT22;201;48.758;9.290;2023-05-18T01:36:59;5.80;7.40
429;DHT22;201;48.758;9.290;2023-05-18T01:39:25;5.70;7.30
429;DHT22;201;48.758;9.290;2023-05-18T01:41:55;5.80;7.40
429;DHT22;201;48.758;9.290;2023-05-18T01:44:33;5.80;7.40
429;DHT22;201;48.758;9.290;2023-05-18T01:47:09;5.70;7.60
429;DHT22;201;48.758;9.290;2023-05-18T01:49:52;5.70;7.70
429;DHT22;201;48.758;9.290;2023-05-18T01:52:38;5.60;7.70
429;DHT22;201;48.758;9.290;2023-05-18T01:55:06;5.40;7.10
429;DHT22;201;48.758;9.290;2023-05-18T01:57:35;5.30;7.10
429;DHT22;201;48.758;9.290;2023-05-18T02:00:02;5.30;7.10
429;DHT22;201;48.758;9.290;2023-05-18T02:02:32;5.40;7.30
429;DHT22;201;48.758;9.290;2023-05-18T02:04:57;5.40;7.30
429;DHT22;201;48.758;9.290;2023-05-18T02:07:23;5.40;7.20
429;DHT22;201;48.758;9.290;2023-05-18T02:09:49;5.50;7.20
429;DHT22;201;48.758;9.290;2023-05-18T02:12:14;5.60;7.30
429;DHT22;201;48.758;9.290;2023-05-18T02:14:39;5.70;5.90
429;DHT22;201;48.758;9.290;2023-05-18T02:17:05;5.70;5.60
429;DHT22;201;48.758;9.290;2023-05-18T02:19:32;5.80;4.70
429;DHT22;201;48.758;9.290;2023-05-18T02:21:58;5.90;4.10
429;DHT22;201;48.758;9.290;2023-05-18T02:24:23;5.90;3.60
429;DHT22;201;48.758;9.290;2023-05-18T02:26:52;6.00;3.60
429;DHT22;201;48.758;9.290;2023-05-18T02:29:17;6.10;3.90
429;DHT22;201;48.758;9.290;2023-05-18T02:31:43;6.10;3.20
429;DHT22;201;48.758;9.290;2023-05-18T02:34:08;6.10;1.90
429;DHT22;201;48.758;9.290;2023-05-18T02:36:35;6.20;1.00
429;DHT22;201;48.758;9.290;2023-05-18T02:39:07;6.30;1.00
429;DHT22;201;48.758;9.290;2023-05-18T02:41:33;6.40;1.00
429;DHT22;201;48.758;9.290;2023-05-18T02:43:59;6.50;1.00
429;DHT22;201;48.758;9.290;2023-05-18T02:46:26;6.60;1.00
429;DHT22;201;48.758;9.290;2023-05-18T02:48:52;6.70;1.00
429;DHT22;201;48.758;9.290;2023-05-18T02:51:17;6.70;1.00
429;DHT22;201;48.758;9.290;2023-05-18T02:53:43;6.70;1.00
429;DHT22;201;48.758;9.290;2023-05-18T02:56:09;6.70;1.00
429;DHT22;201;48.758;9.290;2023-05-18T02:58:36;6.70;1.00
429;DHT22;201;48.758;9.290;2023-05-18T03:01:03;6.70;1.00
429;DHT22;201;48.758;9.290;2023-05-18T03:03:32;6.70;1.00
429;DHT22;201;48.758;9.290;2023-05-18T03:05:59;6.60;1.00
429;DHT22;201;48.758;9.290;2023-05-18T03:08:24;6.60;1.00
429;DHT22;201;48.758;9.290;2023-05-18T03:10:51;6.70;1.00
429;DHT22;201;48.758;9.290;2023-05-18T03:13:17;6.70;1.00
429;DHT22;201;48.758;9.290;2023-05-18T03:15:42;6.70;1.00
429;DHT22;201;48.758;9.290;2023-05-18T03:18:10;6.70;1.00
429;DHT22;201;48.758;9.290;2023-05-18T03:20:36;6.70;1.00
429;DHT22;201;48.758;9.290;2023-05-18T03:23:02;6.60;1.00
429;DHT22;201;48.758;9.290;2023-05-18T03:25:28;6.60;1.00
429;DHT22;201;48.758;9.290;2023-05-18T03:27:54;6.50;1.00
429;DHT22;201;48.758;9.290;2023-05-18T03:30:21;6.50;1.00
429;DHT22;201;48.758;9.290;2023-05-18T03:32:46;6.50;1.00
429;DHT22;201;48.758;9.290;2023-05-18T03:35:13;6.50;1.00
429;DHT22;201;48.758;9.290;2023-05-18T03:37:39;6.50;1.00
429;DHT22;201;48.758;9.290;2023-05-18T03:40:12;6.50;1.00
429;DHT22;201;48.758;9.290;2023-05-18T03:42:39;6.40;1.00
429;DHT22;201;48.758;9.290;2023-05-18T03:45:06;6.40;1.00
429;DHT22;201;48.758;9.290;2023-05-18T03:47:32;6.40;1.00
429;DHT22;201;48.758;9.290;2023-05-18T03:49:58;6.40;1.00
429;DHT22;201;48.758;9.290;2023-05-18T03:52:23;6.40;1.00
429;DHT22;201;48.758;9.290;2023-05-18T03:54:49;6.40;1.00
429;DHT22;201;48.758;9.290;2023-05-18T03:57:18;6.40;1.00
429;DHT22;201;48.758;9.290;2023-05-18T03:59:44;6.40;1.00
429;DHT22;201;48.758;9.290;2023-05-18T04:02:10;6.40;1.00
429;DHT22;201;48.758;9.290;2023-05-18T04:04:36;6.40;1.00
429;DHT22;201;48.758;9.290;2023-05-18T04:07:09;6.40;1.00
429;DHT22;201;48.758;9.290;2023-05-18T04:09:35;6.40;1.00
429;DHT22;201;48.758;9.290;2023-05-18T04:12:01;6.40;1.00
429;DHT22;201;48.758;9.290;2023-05-18T04:14:27;6.40;1.00
429;DHT22;201;48.758;9.290;2023-05-18T04:16:53;6.50;1.00
429;DHT22;201;48.758;9.290;2023-05-18T04:19:19;6.50;1.00
429;DHT22;201;48.758;9.290;2023-05-18T04:21:46;6.50;1.00
429;DHT22;201;48.758;9.290;2023-05-18T04:24:13;6.50;1.00
429;DHT22;201;48.758;9.290;2023-05-18T04:26:40;6.60;1.00
429;DHT22;201;48.758;9.290;2023-05-18T04:29:07;6.60;1.00
429;DHT22;201;48.758;9.290;2023-05-18T04:31:35;6.70;1.00
429;DHT22;201;48.758;9.290;2023-05-18T04:34:00;6.80;1.00
429;DHT22;201;48.758;9.290;2023-05-18T04:36:26;6.80;1.00
429;DHT22;201;48.758;9.290;2023-05-18T04:38:58;6.90;1.00
429;DHT22;201;48.758;9.290;2023-05-18T04:41:24;6.90;1.00
429;DHT22;201;48.758;9.290;2023-05-18T04:43:50;7.00;1.00
429;DHT22;201;48.758;9.290;2023-05-18T04:46:16;7.10;1.00
429;DHT22;201;48.758;9.290;2023-05-18T04:48:42;7.10;1.00
429;DHT22;201;48.758;9.290;2023-05-18T04:51:07;7.20;1.00
429;DHT22;201;48.758;9.290;2023-05-18T04:53:33;7.30;1.00
429;DHT22;201;48.758;9.290;2023-05-18T04:56:00;7.40;1.00
429;DHT22;201;48.758;9.290;2023-05-18T04:58:26;7.50;1.00
429;DHT22;201;48.758;9.290;2023-05-18T05:00:55;7.60;1.00
429;DHT22;201;48.758;9.290;2023-05-18T05:03:21;7.70;1.00
429;DHT22;201;48.758;9.290;2023-05-18T05:05:47;7.80;1.00
429;DHT22;201;48.758;9.290;2023-05-18T05:08:12;8.00;1.00
429;DHT22;201;48.758;9.290;2023-05-18T05:10:38;8.10;1.00
429;DHT22;201;48.758;9.290;2023-05-18T05:13:03;8.50;1.00
429;DHT22;201;48.758;9.290;2023-05-18T05:15:29;8.70;1.00
429;DHT22;201;48.758;9.290;2023-05-18T05:17:55;8.60;1.00
429;DHT22;201;48.758;9.290;2023-05-18T05:20:21;8.70;1.00
429;DHT22;201;48.758;9.290;2023-05-18T05:22:46;8.90;1.00
429;DHT22;201;48.758;9.290;2023-05-18T05:25:12;9.30;1.00
429;DHT22;201;48.758;9.290;2023-05-18T05:27:37;9.70;1.00
429;DHT22;201;48.758;9.290;2023-05-18T05:30:03;10.50;1.00
429;DHT22;201;48.758;9.290;2023-05-18T05:32:29;10.90;1.00
429;DHT22;201;48.758;9.290;2023-05-18T05:34:55;11.10;1.00
429;DHT22;201;48.758;9.290;2023-05-18T05:37:20;11.10;1.00
429;DHT22;201;48.758;9.290;2023-05-18T05:39:46;11.40;1.00
429;DHT22;201;48.758;9.290;2023-05-18T05:42:12;11.60;1.00
429;DHT22;201;48.758;9.290;2023-05-18T05:44:38;11.90;1.00
429;DHT22;201;48.758;9.290;2023-05-18T05:47:05;12.70;1.00
429;DHT22;201;48.758;9.290;2023-05-18T05:49:30;12.90;1.00
429;DHT22;201;48.758;9.290;2023-05-18T05:51:56;12.90;1.00
429;DHT22;201;48.758;9.290;2023-05-18T05:54:22;12.50;1.00
429;DHT22;201;48.758;9.290;2023-05-18T05:56:47;12.30;1.00
429;DHT22;201;48.758;9.290;2023-05-18T05:59:13;12.60;1.00
429;DHT22;201;48.758;9.290;2023-05-18T06:01:38;13.20;1.00
429;DHT22;201;48.758;9.290;2023-05-18T06:04:04;13.20;1.00
429;DHT22;201;48.758;9.290;2023-05-18T06:06:35;13.80;1.00
429;DHT22;201;48.758;9.290;2023-05-18T06:09:01;13.80;1.00
429;DHT22;201;48.758;9.290;2023-05-18T06:11:29;14.60;1.00
429;DHT22;201;48.758;9.290;2023-05-18T06:13:54;15.60;1.00
429;DHT22;201;48.758;9.290;2023-05-18T06:16:20;16.00;1.00
429;DHT22;201;48.758;9.290;2023-05-18T06:18:45;16.80;1.00
429;DHT22;201;48.758;9.290;2023-05-18T06:21:12;17.40;1.00
429;DHT22;201;48.758;9.290;2023-05-18T06:23:37;17.90;1.00
429;DHT22;201;48.758;9.290;2023-05-18T06:26:03;18.70;1.00
429;DHT22;201;48.758;9.290;2023-05-18T06:28:28;19.20;1.00
429;DHT22;201;48.758;9.290;2023-05-18T06:30:54;19.00;1.00
429;DHT22;201;48.758;9.290;2023-05-18T06:33:20;20.00;1.00
429;DHT22;201;48.758;9.290;2023-05-18T06:35:47;20.20;1.00
429;DHT22;201;48.758;9.290;2023-05-18T06:38:13;20.50;1.00
429;DHT22;201;48.758;9.290;2023-05-18T06:40:39;21.60;1.00
429;DHT22;201;48.758;9.290;2023-05-18T06:43:04;21.90;1.00
429;DHT22;201;48.758;9.290;2023-05-18T06:45:30;22.20;1.00
429;DHT22;201;48.758;9.290;2023-05-18T06:47:55;22.00;1.00
429;DHT22;201;48.758;9.290;2023-05-18T06:50:21;22.70;1.00
429;DHT22;201;48.758;9.290;2023-05-18T06:52:47;21.50;1.00
429;DHT22;201;48.758;9.290;2023-05-18T06:55:12;21.10;1.00
429;DHT22;201;48.758;9.290;2023-05-18T06:57:39;21.90;1.00
429;DHT22;201;48.758;9.290;2023-05-18T07:00:06;22.30;1.00
429;DHT22;201;48.758;9.290;2023-05-18T07:02:33;22.60;1.00
429;DHT22;201;48.758;9.290;2023-05-18T07:04:58;22.20;1.00
429;DHT22;201;48.758;9.290;2023-05-18T07:07:25;22.40;1.00
429;DHT22;201;48.758;9.290;2023-05-18T07:09:51;22.00;1.00
429;DHT22;201;48.758;9.290;2023-05-18T07:12:19;21.80;1.00
429;DHT22;201;48.758;9.290;2023-05-18T07:14:44;22.30;1.00
429;DHT22;201;48.758;9.290;2023-05-18T07:17:10;23.40;1.00
429;DHT22;201;48.758;9.290;2023-05-18T07:19:35;24.70;1.00
429;DHT22;201;48.758;9.290;2023-05-18T07:22:01;25.30;1.00
429;DHT22;201;48.758;9.290;2023-05-18T07:24:28;25.20;1.00
429;DHT22;201;48.758;9.290;2023-05-18T07:26:54;24.70;1.00
429;DHT22;201;48.758;9.290;2023-05-18T07:29:19;26.00;1.00
429;DHT22;201;48.758;9.290;2023-05-18T07:31:45;26.60;1.00
429;DHT22;201;48.758;9.290;2023-05-18T07:34:11;26.60;1.00
429;DHT22;201;48.758;9.290;2023-05-18T07:36:36;25.70;1.00
429;DHT22;201;48.758;9.290;2023-05-18T07:39:02;26.00;1.00
429;DHT22;201;48.758;9.290;2023-05-18T07:41:28;26.30;1.00
429;DHT22;201;48.758;9.290;2023-05-18T07:43:56;26.20;1.00
429;DHT22;201;48.758;9.290;2023-05-18T07:46:21;25.40;1.00
429;DHT22;201;48.758;9.290;2023-05-18T07:48:47;26.20;1.00
429;DHT22;201;48.758;9.290;2023-05-18T07:51:12;26.80;1.00
429;DHT22;201;48.758;9.290;2023-05-18T07:53:38;25.90;1.00
429;DHT22;201;48.758;9.290;2023-05-18T07:56:05;25.60;1.00
429;DHT22;201;48.758;9.290;2023-05-18T07:58:33;24.40;1.00
429;DHT22;201;48.758;9.290;2023-05-18T08:00:59;24.90;1.00
429;DHT22;201;48.758;9.290;2023-05-18T08:03:25;24.90;1.00
429;DHT22;201;48.758;9.290;2023-05-18T08:05:50;24.40;1.00
429;DHT22;201;48.758;9.290;2023-05-18T08:08:16;25.60;1.00
429;DHT22;201;48.758;9.290;2023-05-18T08:10:42;26.00;1.00
429;DHT22;201;48.758;9.290;2023-05-18T08:13:08;26.70;1.00
429;DHT22;201;48.758;9.290;2023-05-18T08:15:34;26.70;1.00
429;DHT22;201;48.758;9.290;2023-05-18T08:18:00;26.10;1.00
429;DHT22;201;48.758;9.290;2023-05-18T08:20:25;26.50;1.00
429;DHT22;201;48.758;9.290;2023-05-18T08:22:54;26.60;1.00
429;DHT22;201;48.758;9.290;2023-05-18T08:25:20;28.10;1.00
429;DHT22;201;48.758;9.290;2023-05-18T08:27:46;28.90;1.00
429;DHT22;201;48.758;9.290;2023-05-18T08:30:12;29.00;1.00
429;DHT22;201;48.758;9.290;2023-05-18T08:32:37;29.40;1.00
429;DHT22;201;48.758;9.290;2023-05-18T08:35:06;29.50;1.00
429;DHT22;201;48.758;9.290;2023-05-18T08:37:33;29.90;1.00
429;DHT22;201;48.758;9.290;2023-05-18T08:40:02;30.30;1.00
429;DHT22;201;48.758;9.290;2023-05-18T08:42:32;30.20;1.00
429;DHT22;201;48.758;9.290;2023-05-18T08:45:12;30.10;1.00
429;DHT22;201;48.758;9.290;2023-05-18T08:47:40;29.50;1.00
429;DHT22;201;48.758;9.290;2023-05-18T08:50:06;29.50;1.00
429;DHT22;201;48.758;9.290;2023-05-18T08:52:35;30.40;1.00
429;DHT22;201;48.758;9.290;2023-05-18T08:55:07;31.80;1.00
429;DHT22;201;48.758;9.290;2023-05-18T08:57:36;31.40;1.00
429;DHT22;201;48.758;9.290;2023-05-18T09:00:03;31.40;1.00
429;DHT22;201;48.758;9.290;2023-05-18T09:02:30;31.40;1.00
429;DHT22;201;48.758;9.290;2023-05-18T09:04:57;30.40;1.00
429;DHT22;201;48.758;9.290;2023-05-18T09:07:23;29.60;1.00
429;DHT22;201;48.758;9.290;2023-05-18T09:09:49;29.80;1.00
429;DHT22;201;48.758;9.290;2023-05-18T09:12:17;30.00;1.00
429;DHT22;201;48.758;9.290;2023-05-18T09:14:45;29.80;1.00
429;DHT22;201;48.758;9.290;2023-05-18T09:17:10;29.40;1.00
429;DHT22;201;48.758;9.290;2023-05-18T09:19:36;28.20;1.00
429;DHT22;201;48.758;9.290;2023-05-18T09:22:02;26.40;1.00
429;DHT22;201;48.758;9.290;2023-05-18T09:24:28;26.90;1.00
429;DHT22;201;48.758;9.290;2023-05-18T09:26:53;27.80;1.00
429;DHT22;201;48.758;9.290;2023-05-18T09:29:21;29.00;1.00
429;DHT22;201;48.758;9.290;2023-05-18T09:31:48;28.90;1.00
429;DHT22;201;48.758;9.290;2023-05-18T09:34:15;28.30;1.00
429;DHT22;201;48.758;9.290;2023-05-18T09:36:40;26.80;1.00
429;DHT22;201;48.758;9.290;2023-05-18T09:39:10;25.90;1.00
429;DHT22;201;48.758;9.290;2023-05-18T09:41:37;26.70;1.00
429;DHT22;201;48.758;9.290;2023-05-18T09:44:04;27.20;1.00
429;DHT22;201;48.758;9.290;2023-05-18T09:46:35;26.80;1.00
429;DHT22;201;48.758;9.290;2023-05-18T09:49:02;28.00;1.00
429;DHT22;201;48.758;9.290;2023-05-18T09:51:28;29.50;1.00
429;DHT22;201;48.758;9.290;2023-05-18T09:53:56;30.50;1.00
429;DHT22;201;48.758;9.290;2023-05-18T09:56:22;31.60;1.00
429;DHT22;201;48.758;9.290;2023-05-18T09:58:48;30.10;1.00
429;DHT22;201;48.758;9.290;2023-05-18T10:01:13;29.40;1.00
429;DHT22;201;48.758;9.290;2023-05-18T10:03:39;29.50;1.00
429;DHT22;201;48.758;9.290;2023-05-18T10:06:09;28.20;1.00
429;DHT22;201;48.758;9.290;2023-05-18T10:08:36;28.10;1.00
429;DHT22;201;48.758;9.290;2023-05-18T10:11:02;28.10;1.00
429;DHT22;201;48.758;9.290;2023-05-18T10:13:29;28.20;1.00
429;DHT22;201;48.758;9.290;2023-05-18T10:16:03;29.70;1.00
429;DHT22;201;48.758;9.290;2023-05-18T10:18:34;30.60;1.00
429;DHT22;201;48.758;9.290;2023-05-18T10:21:01;30.80;1.00
429;DHT22;201;48.758;9.290;2023-05-18T10:23:30;31.40;1.00
429;DHT22;201;48.758;9.290;2023-05-18T10:25:56;31.10;1.00
429;DHT22;201;48.758;9.290;2023-05-18T10:28:29;30.90;1.00
429;DHT22;201;48.758;9.290;2023-05-18T10:30:57;30.90;1.00
429;DHT22;201;48.758;9.290;2023-05-18T10:33:26;30.40;1.00
429;DHT22;201;48.758;9.290;2023-05-18T10:35:53;28.20;1.00
429;DHT22;201;48.758;9.290;2023-05-18T10:38:24;27.20;1.00
429;DHT22;201;48.758;9.290;2023-05-18T10:40:53;25.40;1.00
429;DHT22;201;48.758;9.290;2023-05-18T10:43:20;23.10;1.00
429;DHT22;201;48.758;9.290;2023-05-18T10:45:52;22.60;1.00
429;DHT22;201;48.758;9.290;2023-05-18T10:48:19;22.40;1.00
429;DHT22;201;48.758;9.290;2023-05-18T10:50:50;22.10;1.00
429;DHT22;201;48.758;9.290;2023-05-18T10:53:21;22.10;1.00
429;DHT22;201;48.758;9.290;2023-05-18T10:55:47;21.70;1.00
429;DHT22;201;48.758;9.290;2023-05-18T10:58:15;21.20;1.00
429;DHT22;201;48.758;9.290;2023-05-18T11:00:43;21.00;1.00
429;DHT22;201;48.758;9.290;2023-05-18T11:03:12;20.90;1.00
429;DHT22;201;48.758;9.290;2023-05-18T11:05:39;20.80;1.00
429;DHT22;201;48.758;9.290;2023-05-18T11:08:05;20.40;1.00
429;DHT22;201;48.758;9.290;2023-05-18T11:10:44;20.40;1.00
429;DHT22;201;48.758;9.290;2023-05-18T11:13:13;20.50;1.00
429;DHT22;201;48.758;9.290;2023-05-18T11:24:41;20.40;1.00
429;DHT22;201;48.758;9.290;2023-05-18T11:27:13;20.10;1.00
429;DHT22;201;48.758;9.290;2023-05-18T11:29:41;20.10;1.00
429;DHT22;201;48.758;9.290;2023-05-18T11:32:25;20.00;1.00
429;DHT22;201;48.758;9.290;2023-05-18T11:34:53;20.20;1.00
429;DHT22;201;48.758;9.290;2023-05-18T11:40:42;20.00;1.00
429;DHT22;201;48.758;9.290;2023-05-18T11:42:58;19.70;1.00
429;DHT22;201;48.758;9.290;2023-05-18T11:45:24;19.90;1.00
429;DHT22;201;48.758;9.290;2023-05-18T11:47:55;19.90;1.00
429;DHT22;201;48.758;9.290;2023-05-18T11:50:21;19.40;1.00
429;DHT22;201;48.758;9.290;2023-05-18T11:52:49;19.60;1.00
429;DHT22;201;48.758;9.290;2023-05-18T11:55:18;20.00;1.00
429;DHT22;201;48.758;9.290;2023-05-18T11:57:47;20.10;1.00
429;DHT22;201;48.758;9.290;2023-05-18T12:00:13;19.80;1.00
429;DHT22;201;48.758;9.290;2023-05-18T12:02:45;19.90;1.00
429;DHT22;201;48.758;9.290;2023-05-18T12:05:10;20.40;1.00
429;DHT22;201;48.758;9.290;2023-05-18T12:07:37;20.60;1.00
429;DHT22;201;48.758;9.290;2023-05-18T12:10:08;20.90;1.00
429;DHT22;201;48.758;9.290;2023-05-18T12:12:34;21.10;1.00
429;DHT22;201;48.758;9.290;2023-05-18T12:15:02;21.10;1.00
429;DHT22;201;48.758;9.290;2023-05-18T12:17:45;21.10;1.00
429;DHT22;201;48.758;9.290;2023-05-18T12:20:18;21.20;1.00
429;DHT22;201;48.758;9.290;2023-05-18T12:22:49;21.10;1.00
429;DHT22;201;48.758;9.290;2023-05-18T12:25:16;20.90;1.00
429;DHT22;201;48.758;9.290;2023-05-18T12:27:44;20.60;1.00
429;DHT22;201;48.758;9.290;2023-05-18T12:30:10;20.50;1.00
429;DHT22;201;48.758;9.290;2023-05-18T12:32:37;20.60;1.00
429;DHT22;201;48.758;9.290;2023-05-18T12:35:03;20.90;1.00
429;DHT22;201;48.758;9.290;2023-05-18T12:37:30;21.10;1.00
429;DHT22;201;48.758;9.290;2023-05-18T12:39:55;21.20;1.00
429;DHT22;201;48.758;9.290;2023-05-18T12:42:21;21.20;1.00
429;DHT22;201;48.758;9.290;2023-05-18T12:44:47;21.20;1.00
429;DHT22;201;48.758;9.290;2023-05-18T12:47:15;21.30;1.00
429;DHT22;201;48.758;9.290;2023-05-18T12:49:42;21.10;1.00
429;DHT22;201;48.758;9.290;2023-05-18T12:52:13;20.90;1.00
429;DHT22;201;48.758;9.290;2023-05-18T12:54:51;20.80;1.00
429;DHT22;201;48.758;9.290;2023-05-18T12:57:24;20.80;1.00
429;DHT22;201;48.758;9.290;2023-05-18T12:59:54;20.90;1.00
429;DHT22;201;48.758;9.290;2023-05-18T13:05:07;20.40;1.00
429;DHT22;201;48.758;9.290;2023-05-18T13:07:40;20.40;1.00
429;DHT22;201;48.758;9.290;2023-05-18T13:10:07;20.10;1.00
429;DHT22;201;48.758;9.290;2023-05-18T13:12:47;20.10;1.00
429;DHT22;201;48.758;9.290;2023-05-18T13:15:18;20.00;1.00
429;DHT22;201;48.758;9.290;2023-05-18T13:18:04;20.10;1.00
429;DHT22;201;48.758;9.290;2023-05-18T13:20:34;20.30;1.00
429;DHT22;201;48.758;9.290;2023-05-18T13:23:11;19.90;1.00
429;DHT22;201;48.758;9.290;2023-05-18T13:25:38;19.70;1.00
429;DHT22;201;48.758;9.290;2023-05-18T13:28:04;19.70;1.00
429;DHT22;201;48.758;9.290;2023-05-18T13:30:30;19.90;1.00
429;DHT22;201;48.758;9.290;2023-05-18T13:32:56;20.00;1.00
429;DHT22;201;48.758;9.290;2023-05-18T13:35:22;19.90;1.00
429;DHT22;201;48.758;9.290;2023-05-18T13:37:48;20.00;1.00
429;DHT22;201;48.758;9.290;2023-05-18T13:40:15;20.10;1.00
429;DHT22;201;48.758;9.290;2023-05-18T13:42:41;20.10;1.00
429;DHT22;201;48.758;9.290;2023-05-18T13:45:08;20.30;1.00
429;DHT22;201;48.758;9.290;2023-05-18T13:47:33;20.40;1.00
429;DHT22;201;48.758;9.290;2023-05-18T13:49:59;20.50;1.00
429;DHT22;201;48.758;9.290;2023-05-18T13:52:24;20.70;1.00
429;DHT22;201;48.758;9.290;2023-05-18T13:54:50;20.60;1.00
429;DHT22;201;48.758;9.290;2023-05-18T13:57:15;20.30;1.00
429;DHT22;201;48.758;9.290;2023-05-18T13:59:41;20.20;1.00
429;DHT22;201;48.758;9.290;2023-05-18T14:02:06;20.10;1.00
429;DHT22;201;48.758;9.290;2023-05-18T14:04:32;20.10;1.00
429;DHT22;201;48.758;9.290;2023-05-18T14:06:57;20.00;1.00
429;DHT22;201;48.758;9.290;2023-05-18T14:09:23;20.00;1.00
429;DHT22;201;48.758;9.290;2023-05-18T14:11:52;19.80;1.00
429;DHT22;201;48.758;9.290;2023-05-18T14:14:18;19.80;1.00
429;DHT22;201;48.758;9.290;2023-05-18T14:16:43;19.60;1.00
429;DHT22;201;48.758;9.290;2023-05-18T14:19:09;19.60;1.00
429;DHT22;201;48.758;9.290;2023-05-18T14:21:34;19.50;1.00
429;DHT22;201;48.758;9.290;2023-05-18T14:24:00;19.50;1.00
429;DHT22;201;48.758;9.290;2023-05-18T14:26:28;19.50;1.00
429;DHT22;201;48.758;9.290;2023-05-18T14:28:54;19.50;1.00
429;DHT22;201;48.758;9.290;2023-05-18T14:31:19;19.50;1.00
429;DHT22;201;48.758;9.290;2023-05-18T14:33:45;19.50;1.00
429;DHT22;201;48.758;9.290;2023-05-18T14:36:10;19.90;1.00
429;DHT22;201;48.758;9.290;2023-05-18T14:38:36;19.70;1.00
429;DHT22;201;48.758;9.290;2023-05-18T14:41:02;19.50;1.00
429;DHT22;201;48.758;9.290;2023-05-18T14:43:27;19.40;1.00
429;DHT22;201;48.758;9.290;2023-05-18T14:45:53;19.30;1.00
429;DHT22;201;48.758;9.290;2023-05-18T14:48:18;19.20;1.00
429;DHT22;201;48.758;9.290;2023-05-18T14:50:44;19.20;1.00
429;DHT22;201;48.758;9.290;2023-05-18T14:53:09;19.10;1.00
429;DHT22;201;48.758;9.290;2023-05-18T14:55:35;19.00;1.00
429;DHT22;201;48.758;9.290;2023-05-18T14:58:00;19.00;1.00
429;DHT22;201;48.758;9.290;2023-05-18T15:00:28;18.80;1.00
429;DHT22;201;48.758;9.290;2023-05-18T15:02:54;18.70;1.00
429;DHT22;201;48.758;9.290;2023-05-18T15:05:20;18.80;1.00
429;DHT22;201;48.758;9.290;2023-05-18T15:07:46;18.80;1.00
429;DHT22;201;48.758;9.290;2023-05-18T15:10:11;18.80;1.00
429;DHT22;201;48.758;9.290;2023-05-18T15:12:37;18.80;1.00
429;DHT22;201;48.758;9.290;2023-05-18T15:15:02;18.70;1.00
429;DHT22;201;48.758;9.290;2023-05-18T15:17:28;18.60;1.00
429;DHT22;201;48.758;9.290;2023-05-18T15:19:54;18.30;1.00
429;DHT22;201;48.758;9.290;2023-05-18T15:22:19;18.00;1.00
429;DHT22;201;48.758;9.290;2023-05-18T15:24:45;17.80;1.00
429;DHT22;201;48.758;9.290;2023-05-18T15:27:10;17.80;1.00
429;DHT22;201;48.758;9.290;2023-05-18T15:29:36;17.60;1.00
429;DHT22;201;48.758;9.290;2023-05-18T15:32:02;17.40;1.00
429;DHT22;201;48.758;9.290;2023-05-18T15:34:28;17.30;1.00
429;DHT22;201;48.758;9.290;2023-05-18T15:36:54;17.20;1.00
429;DHT22;201;48.758;9.290;2023-05-18T15:39:19;17.20;1.00
429;DHT22;201;48.758;9.290;2023-05-18T15:41:45;17.20;1.00
429;DHT22;201;48.758;9.290;2023-05-18T15:44:10;17.20;1.00
429;DHT22;201;48.758;9.290;2023-05-18T15:46:36;17.30;1.00
429;DHT22;201;48.758;9.290;2023-05-18T15:49:02;17.30;1.00
429;DHT22;201;48.758;9.290;2023-05-18T15:51:28;17.30;1.00
429;DHT22;201;48.758;9.290;2023-05-18T15:53:54;17.10;1.00
429;DHT22;201;48.758;9.290;2023-05-18T15:56:19;17.00;1.00
429;DHT22;201;48.758;9.290;2023-05-18T15:58:46;16.90;1.00
429;DHT22;201;48.758;9.290;2023-05-18T16:01:12;16.80;1.00
429;DHT22;201;48.758;9.290;2023-05-18T16:03:37;16.70;1.00
429;DHT22;201;48.758;9.290;2023-05-18T16:06:03;16.60;1.00
429;DHT22;201;48.758;9.290;2023-05-18T16:08:29;16.60;1.00
429;DHT22;201;48.758;9.290;2023-05-18T16:10:54;16.60;1.00
429;DHT22;201;48.758;9.290;2023-05-18T16:13:20;16.70;1.00
429;DHT22;201;48.758;9.290;2023-05-18T16:15:50;16.80;1.00
429;DHT22;201;48.758;9.290;2023-05-18T16:18:15;16.70;1.00
429;DHT22;201;48.758;9.290;2023-05-18T16:20:41;16.70;1.00
429;DHT22;201;48.758;9.290;2023-05-18T16:23:06;16.70;1.00
429;DHT22;201;48.758;9.290;2023-05-18T16:25:32;16.70;1.00
429;DHT22;201;48.758;9.290;2023-05-18T16:27:57;16.60;1.00
429;DHT22;201;48.758;9.290;2023-05-18T16:30:23;16.70;1.00
429;DHT22;201;48.758;9.290;2023-05-18T16:32:48;16.70;1.00
429;DHT22;201;48.758;9.290;2023-05-18T16:35:14;16.80;1.00
429;DHT22;201;48.758;9.290;2023-05-18T16:37:40;16.90;1.00
429;DHT22;201;48.758;9.290;2023-05-18T16:40:06;16.90;1.00
429;DHT22;201;48.758;9.290;2023-05-18T16:42:32;16.80;1.00
429;DHT22;201;48.758;9.290;2023-05-18T16:44:58;16.70;1.00
429;DHT22;201;48.758;9.290;2023-05-18T16:47:23;16.70;1.00
429;DHT22;201;48.758;9.290;2023-05-18T16:49:49;16.70;1.00
429;DHT22;201;48.758;9.290;2023-05-18T16:52:14;16.70;1.00
429;DHT22;201;48.758;9.290;2023-05-18T16:54:43;16.70;1.00
429;DHT22;201;48.758;9.290;2023-05-18T16:57:08;16.60;1.00
429;DHT22;201;48.758;9.290;2023-05-18T16:59:38;16.70;1.00
429;DHT22;201;48.758;9.290;2023-05-18T17:02:03;16.70;1.00
429;DHT22;201;48.758;9.290;2023-05-18T17:04:29;16.70;1.00
429;DHT22;201;48.758;9.290;2023-05-18T17:06:54;16.80;1.00
429;DHT22;201;48.758;9.290;2023-05-18T17:09:20;16.60;1.00
429;DHT22;201;48.758;9.290;2023-05-18T17:11:46;16.50;1.00